createdAt,value
2022-12-27T00:00:04.313Z,83
2022-12-27T00:01:04.393Z,83
2022-12-27T00:02:04.456Z,79
2022-12-27T00:03:04.394Z,79
2022-12-27T00:04:04.331Z,79
2022-12-27T00:05:04.355Z,75
2022-12-27T00:06:04.332Z,75
2022-12-27T00:07:04.371Z,75
2022-12-27T00:08:04.309Z,75
2022-12-27T00:09:04.339Z,77
2022-12-27T00:10:04.346Z,77
2022-12-27T00:11:04.313Z,77
2022-12-27T00:12:04.302Z,76
2022-12-27T00:13:04.335Z,76
2022-12-27T00:14:04.338Z,76
2022-12-27T00:15:04.348Z,76
2022-12-27T00:16:04.401Z,76
2022-12-27T00:17:04.326Z,76
2022-12-27T00:18:04.342Z,76
2022-12-27T00:19:04.344Z,76
2022-12-27T00:20:10.945Z,76
2022-12-27T00:21:04.358Z,76
2022-12-27T00:22:04.342Z,76
2022-12-27T00:23:04.458Z,76
2022-12-27T00:24:04.349Z,76
2022-12-27T00:25:04.390Z,75
2022-12-27T00:26:04.475Z,75
2022-12-27T00:27:04.426Z,75
2022-12-27T00:28:04.471Z,75
2022-12-27T00:29:04.431Z,75
2022-12-27T00:30:04.444Z,75
2022-12-27T00:31:04.430Z,75
2022-12-27T00:32:04.565Z,75
2022-12-27T00:33:04.448Z,75
2022-12-27T00:34:04.457Z,75
2022-12-27T00:35:04.486Z,73
2022-12-27T00:36:04.421Z,73
2022-12-27T00:37:04.533Z,73
2022-12-27T00:38:04.415Z,73
2022-12-27T00:39:04.533Z,74
2022-12-27T00:40:04.438Z,74
2022-12-27T00:41:04.431Z,74
2022-12-27T00:42:04.457Z,76
2022-12-27T00:43:04.470Z,76
2022-12-27T00:44:04.444Z,76
2022-12-27T00:45:04.658Z,76
2022-12-27T00:46:04.524Z,76
2022-12-27T00:47:04.447Z,76
2022-12-27T00:48:04.455Z,76
2022-12-27T00:49:04.449Z,77
2022-12-27T00:50:04.506Z,77
2022-12-27T00:51:04.453Z,77
2022-12-27T00:52:04.588Z,76
2022-12-27T00:53:04.554Z,76
2022-12-27T00:54:04.556Z,76
2022-12-27T00:55:04.671Z,76
2022-12-27T00:56:04.458Z,76
2022-12-27T00:57:04.567Z,76
2022-12-27T00:58:04.480Z,76
2022-12-27T00:59:04.460Z,76
2022-12-27T01:00:09.730Z,76
2022-12-27T01:01:04.508Z,76
2022-12-27T01:02:04.565Z,81
2022-12-27T01:03:04.463Z,81
2022-12-27T01:04:04.495Z,81
2022-12-27T01:05:04.515Z,81
2022-12-27T01:06:04.526Z,77
2022-12-27T01:07:04.853Z,77
2022-12-27T01:08:04.491Z,77
2022-12-27T01:09:04.456Z,80
2022-12-27T01:10:04.500Z,80
2022-12-27T01:11:04.506Z,80
2022-12-27T01:12:04.510Z,79
2022-12-27T01:13:04.501Z,79
2022-12-27T01:14:04.489Z,79
2022-12-27T01:15:04.496Z,79
2022-12-27T01:16:04.646Z,79
2022-12-27T01:17:04.488Z,79
2022-12-27T01:18:04.498Z,79
2022-12-27T01:19:04.507Z,80
2022-12-27T01:20:04.505Z,80
2022-12-27T01:21:04.498Z,80
2022-12-27T01:22:04.507Z,87
2022-12-27T01:23:04.504Z,87
2022-12-27T01:24:04.515Z,87
2022-12-27T01:25:04.520Z,87
2022-12-27T01:26:04.513Z,80
2022-12-27T01:27:04.549Z,80
2022-12-27T01:28:04.496Z,80
2022-12-27T01:29:04.492Z,81
2022-12-27T01:30:04.541Z,81
2022-12-27T01:31:04.493Z,81
2022-12-27T01:32:04.572Z,81
2022-12-27T01:33:04.548Z,81
2022-12-27T01:34:04.526Z,81
2022-12-27T01:35:04.524Z,81
2022-12-27T01:36:04.527Z,81
2022-12-27T01:37:04.495Z,81
2022-12-27T01:38:04.541Z,81
2022-12-27T01:39:04.562Z,81
2022-12-27T01:40:04.512Z,81
2022-12-27T01:41:04.509Z,81
2022-12-27T01:42:04.585Z,81
2022-12-27T01:43:04.557Z,81
2022-12-27T01:44:04.514Z,81
2022-12-27T01:45:04.524Z,81
2022-12-27T01:46:04.591Z,83
2022-12-27T01:47:04.550Z,83
2022-12-27T01:48:04.565Z,83
2022-12-27T01:49:05.330Z,82
2022-12-27T01:50:04.577Z,82
2022-12-27T01:51:04.565Z,82
2022-12-27T01:52:04.637Z,81
2022-12-27T01:53:04.553Z,81
2022-12-27T01:54:04.553Z,81
2022-12-27T01:55:04.598Z,81
2022-12-27T01:56:04.556Z,81
2022-12-27T01:57:04.562Z,81
2022-12-27T01:58:04.562Z,81
2022-12-27T01:59:04.600Z,82
2022-12-27T02:00:04.587Z,82
2022-12-27T02:01:04.606Z,82
2022-12-27T02:02:04.922Z,82
2022-12-27T02:03:04.668Z,82
2022-12-27T02:04:04.657Z,82
2022-12-27T02:05:04.597Z,82
2022-12-27T02:06:04.689Z,82
2022-12-27T02:07:04.590Z,82
2022-12-27T02:08:04.914Z,82
2022-12-27T02:09:04.608Z,82
2022-12-27T02:10:04.710Z,83
2022-12-27T02:11:04.577Z,83
2022-12-27T02:12:04.607Z,83
2022-12-27T02:13:04.591Z,84
2022-12-27T02:14:04.573Z,84
2022-12-27T02:15:04.639Z,84
2022-12-27T02:16:04.574Z,85
2022-12-27T02:17:04.611Z,85
2022-12-27T02:18:04.617Z,85
2022-12-27T02:19:04.580Z,85
2022-12-27T02:20:04.616Z,85
2022-12-27T02:21:04.598Z,85
2022-12-27T02:22:04.601Z,85
2022-12-27T02:23:04.590Z,86
2022-12-27T02:24:04.637Z,86
2022-12-27T02:25:04.644Z,86
2022-12-27T02:26:04.588Z,85
2022-12-27T02:27:04.577Z,85
2022-12-27T02:28:04.605Z,85
2022-12-27T02:29:04.699Z,85
2022-12-27T02:30:04.671Z,86
2022-12-27T02:31:04.830Z,86
2022-12-27T02:32:04.587Z,86
2022-12-27T02:33:04.601Z,85
2022-12-27T02:34:04.701Z,85
2022-12-27T02:35:04.709Z,85
2022-12-27T02:36:04.757Z,85
2022-12-27T02:37:04.673Z,85
2022-12-27T02:38:04.713Z,85
2022-12-27T02:39:04.671Z,85
2022-12-27T02:40:04.681Z,86
2022-12-27T02:41:04.748Z,86
2022-12-27T02:42:04.702Z,86
2022-12-27T02:43:04.697Z,87
2022-12-27T02:44:04.829Z,87
2022-12-27T02:45:04.706Z,87
2022-12-27T02:46:04.754Z,87
2022-12-27T02:47:04.669Z,87
2022-12-27T02:48:04.713Z,87
2022-12-27T02:49:04.673Z,87
2022-12-27T02:50:04.664Z,87
2022-12-27T02:51:04.653Z,87
2022-12-27T02:52:04.657Z,87
2022-12-27T02:53:04.657Z,87
2022-12-27T02:54:04.668Z,87
2022-12-27T02:55:04.720Z,87
2022-12-27T02:56:04.669Z,87
2022-12-27T02:57:04.656Z,87
2022-12-27T02:58:04.707Z,87
2022-12-27T02:59:04.671Z,87
2022-12-27T03:00:04.755Z,87
2022-12-27T03:01:04.653Z,87
2022-12-27T03:02:04.884Z,87
2022-12-27T03:03:04.821Z,87
2022-12-27T03:04:04.689Z,87
2022-12-27T03:05:04.726Z,87
2022-12-27T03:06:04.689Z,87
2022-12-27T03:07:04.676Z,86
2022-12-27T03:08:04.679Z,86
2022-12-27T03:09:04.695Z,86
2022-12-27T03:10:04.769Z,87
2022-12-27T03:11:04.669Z,87
2022-12-27T03:12:04.694Z,87
2022-12-27T03:13:04.718Z,87
2022-12-27T03:14:04.680Z,87
2022-12-27T03:15:04.736Z,87
2022-12-27T03:16:04.719Z,87
2022-12-27T03:17:04.674Z,86
2022-12-27T03:18:04.680Z,86
2022-12-27T03:19:04.786Z,86
2022-12-27T03:20:04.740Z,86
2022-12-27T03:21:04.679Z,86
2022-12-27T03:22:04.788Z,86
2022-12-27T03:23:04.816Z,85
2022-12-27T03:24:04.739Z,85
2022-12-27T03:25:04.825Z,85
2022-12-27T03:26:04.709Z,85
2022-12-27T03:27:04.705Z,84
2022-12-27T03:28:04.708Z,84
2022-12-27T03:29:04.699Z,84
2022-12-27T03:30:04.755Z,83
2022-12-27T03:31:04.752Z,83
2022-12-27T03:32:04.724Z,83
2022-12-27T03:33:04.702Z,83
2022-12-27T03:34:04.783Z,84
2022-12-27T03:35:04.775Z,84
2022-12-27T03:36:04.832Z,84
2022-12-27T03:37:04.766Z,85
2022-12-27T03:38:04.762Z,85
2022-12-27T03:39:04.785Z,85
2022-12-27T03:40:04.799Z,85
2022-12-27T03:41:04.793Z,86
2022-12-27T03:42:04.821Z,86
2022-12-27T03:43:04.826Z,86
2022-12-27T03:44:04.855Z,87
2022-12-27T03:45:04.851Z,87
2022-12-27T03:46:04.850Z,87
2022-12-27T03:47:04.787Z,87
2022-12-27T03:48:04.881Z,87
2022-12-27T03:49:05.130Z,87
2022-12-27T03:50:04.842Z,87
2022-12-27T03:51:05.035Z,85
2022-12-27T03:52:04.801Z,85
2022-12-27T03:53:04.802Z,85
2022-12-27T03:54:05.075Z,86
2022-12-27T03:55:04.830Z,86
2022-12-27T03:56:04.821Z,86
2022-12-27T03:57:04.844Z,86
2022-12-27T03:58:04.855Z,86
2022-12-27T03:59:05.001Z,86
2022-12-27T04:00:04.885Z,86
2022-12-27T04:01:04.839Z,87
2022-12-27T04:02:05.015Z,87
2022-12-27T04:03:05.035Z,87
2022-12-27T04:04:04.877Z,87
2022-12-27T04:05:04.881Z,87
2022-12-27T04:06:04.911Z,87
2022-12-27T04:07:04.947Z,89
2022-12-27T04:08:04.889Z,89
2022-12-27T04:09:04.881Z,89
2022-12-27T04:10:04.985Z,89
2022-12-27T04:11:04.935Z,90
2022-12-27T04:12:05.005Z,90
2022-12-27T04:13:04.998Z,90
2022-12-27T04:14:05.041Z,90
2022-12-27T04:15:05.001Z,90
2022-12-27T04:16:05.037Z,90
2022-12-27T04:17:05.077Z,90
2022-12-27T04:18:05.087Z,91
2022-12-27T04:19:05.045Z,91
2022-12-27T04:20:05.166Z,91
2022-12-27T04:21:05.018Z,91
2022-12-27T04:22:05.075Z,91
2022-12-27T04:23:05.084Z,91
2022-12-27T04:24:05.165Z,91
2022-12-27T04:25:05.150Z,91
2022-12-27T04:26:05.183Z,91
2022-12-27T04:27:05.108Z,91
2022-12-27T04:28:05.186Z,92
2022-12-27T04:29:05.120Z,92
2022-12-27T04:30:05.126Z,92
2022-12-27T04:31:05.166Z,92
2022-12-27T04:32:05.120Z,92
2022-12-27T04:33:05.125Z,92
2022-12-27T04:34:05.118Z,92
2022-12-27T04:35:05.123Z,93
2022-12-27T04:36:06.480Z,93
2022-12-27T04:37:05.138Z,93
2022-12-27T04:38:05.209Z,92
2022-12-27T04:39:05.171Z,92
2022-12-27T04:40:05.139Z,92
2022-12-27T04:41:05.127Z,92
2022-12-27T04:42:05.148Z,93
2022-12-27T04:43:05.137Z,93
2022-12-27T04:44:05.151Z,93
2022-12-27T04:45:07.855Z,92
2022-12-27T04:46:05.246Z,92
2022-12-27T04:47:05.198Z,92
2022-12-27T04:48:05.147Z,91
2022-12-27T04:49:05.165Z,91
2022-12-27T04:50:05.407Z,91
2022-12-27T04:51:05.228Z,91
2022-12-27T04:52:05.229Z,91
2022-12-27T04:53:05.223Z,91
2022-12-27T04:54:05.133Z,91
2022-12-27T04:55:05.171Z,89
2022-12-27T04:56:05.144Z,89
2022-12-27T04:57:05.146Z,89
2022-12-27T04:58:05.137Z,89
2022-12-27T04:59:05.165Z,88
2022-12-27T05:00:05.140Z,88
2022-12-27T05:01:09.112Z,88
2022-12-27T05:02:05.449Z,89
2022-12-27T05:03:05.289Z,89
2022-12-27T05:04:05.235Z,89
2022-12-27T05:05:05.397Z,90
2022-12-27T05:06:05.176Z,90
2022-12-27T05:07:05.190Z,90
2022-12-27T05:08:05.275Z,90
2022-12-27T05:09:05.195Z,89
2022-12-27T05:10:05.222Z,89
2022-12-27T05:11:05.230Z,89
2022-12-27T05:12:05.243Z,91
2022-12-27T05:13:05.288Z,91
2022-12-27T05:14:05.248Z,91
2022-12-27T05:15:05.258Z,92
2022-12-27T05:16:05.250Z,92
2022-12-27T05:17:05.203Z,92
2022-12-27T05:18:05.210Z,92
2022-12-27T05:19:05.238Z,90
2022-12-27T05:20:05.203Z,90
2022-12-27T05:21:05.249Z,90
2022-12-27T05:22:05.252Z,91
2022-12-27T05:23:05.207Z,91
2022-12-27T05:24:05.878Z,91
2022-12-27T05:25:05.268Z,93
2022-12-27T05:26:05.219Z,93
2022-12-27T05:27:05.243Z,93
2022-12-27T05:28:05.217Z,93
2022-12-27T05:29:05.226Z,91
2022-12-27T05:30:05.213Z,91
2022-12-27T05:31:05.361Z,91
2022-12-27T05:32:09.486Z,90
2022-12-27T05:33:05.316Z,90
2022-12-27T05:34:05.301Z,90
2022-12-27T05:35:05.220Z,90
2022-12-27T05:36:05.302Z,90
2022-12-27T05:37:05.255Z,90
2022-12-27T05:38:05.344Z,90
2022-12-27T05:39:05.347Z,90
2022-12-27T05:40:05.302Z,90
2022-12-27T05:41:05.295Z,90
2022-12-27T05:42:05.334Z,90
2022-12-27T05:43:05.336Z,90
2022-12-27T05:44:07.519Z,90
2022-12-27T05:45:05.302Z,90
2022-12-27T05:46:05.297Z,90
2022-12-27T05:47:05.474Z,90
2022-12-27T05:48:05.277Z,90
2022-12-27T05:49:05.294Z,90
2022-12-27T05:50:05.321Z,90
2022-12-27T05:51:05.340Z,90
2022-12-27T05:52:05.285Z,90
2022-12-27T05:53:05.281Z,90
2022-12-27T05:54:05.297Z,90
2022-12-27T05:55:05.285Z,91
2022-12-27T05:56:05.296Z,91
2022-12-27T05:57:05.287Z,91
2022-12-27T05:58:05.282Z,91
2022-12-27T05:59:05.311Z,91
2022-12-27T06:00:05.301Z,91
2022-12-27T06:01:05.281Z,91
2022-12-27T06:02:05.396Z,91
2022-12-27T06:03:05.377Z,91
2022-12-27T06:04:05.283Z,91
2022-12-27T06:05:05.343Z,91
2022-12-27T06:06:07.748Z,91
2022-12-27T06:07:05.313Z,91
2022-12-27T06:08:05.331Z,91
2022-12-27T06:09:05.333Z,92
2022-12-27T06:10:05.370Z,92
2022-12-27T06:11:05.344Z,92
2022-12-27T06:12:05.346Z,91
2022-12-27T06:13:05.351Z,91
2022-12-27T06:14:05.357Z,91
2022-12-27T06:15:05.378Z,91
2022-12-27T06:16:05.508Z,91
2022-12-27T06:17:05.364Z,91
2022-12-27T06:18:05.354Z,91
2022-12-27T06:19:05.368Z,92
2022-12-27T06:20:05.361Z,92
2022-12-27T06:21:05.350Z,92
2022-12-27T06:22:05.539Z,93
2022-12-27T06:23:05.367Z,93
2022-12-27T06:24:05.371Z,93
2022-12-27T06:25:07.100Z,92
2022-12-27T06:26:05.373Z,92
2022-12-27T06:27:05.362Z,92
2022-12-27T06:28:05.350Z,92
2022-12-27T06:29:05.409Z,92
2022-12-27T06:30:05.377Z,92
2022-12-27T06:31:05.452Z,92
2022-12-27T06:32:05.339Z,92
2022-12-27T06:33:05.399Z,92
2022-12-27T06:34:05.391Z,92
2022-12-27T06:35:05.331Z,93
2022-12-27T06:36:05.466Z,93
2022-12-27T06:37:05.609Z,93
2022-12-27T06:38:05.414Z,93
2022-12-27T06:39:05.424Z,93
2022-12-27T06:40:05.567Z,93
2022-12-27T06:41:05.443Z,93
2022-12-27T06:42:05.462Z,93
2022-12-27T06:43:05.413Z,93
2022-12-27T06:44:05.413Z,93
2022-12-27T06:45:05.431Z,93
2022-12-27T06:46:05.481Z,93
2022-12-27T06:47:05.589Z,93
2022-12-27T06:48:05.391Z,93
2022-12-27T06:49:05.394Z,93
2022-12-27T06:50:05.406Z,93
2022-12-27T06:51:05.458Z,93
2022-12-27T06:52:05.407Z,92
2022-12-27T06:53:05.404Z,92
2022-12-27T06:54:05.409Z,92
2022-12-27T06:55:05.412Z,92
2022-12-27T06:56:05.606Z,92
2022-12-27T06:57:05.595Z,92
2022-12-27T06:58:05.444Z,92
2022-12-27T06:59:05.454Z,93
2022-12-27T07:00:05.424Z,93
2022-12-27T07:01:05.518Z,93
2022-12-27T07:02:05.551Z,92
2022-12-27T07:03:05.847Z,92
2022-12-27T07:04:05.427Z,92
2022-12-27T07:05:05.433Z,92
2022-12-27T07:06:05.511Z,92
2022-12-27T07:07:05.919Z,92
2022-12-27T07:08:05.516Z,92
2022-12-27T07:09:05.527Z,92
2022-12-27T07:10:05.435Z,92
2022-12-27T07:11:05.455Z,92
2022-12-27T07:12:05.464Z,93
2022-12-27T07:13:05.447Z,93
2022-12-27T07:14:05.431Z,93
2022-12-27T07:15:05.455Z,94
2022-12-27T07:16:05.521Z,94
2022-12-27T07:17:05.439Z,94
2022-12-27T07:18:05.443Z,94
2022-12-27T07:19:05.456Z,93
2022-12-27T07:20:05.475Z,93
2022-12-27T07:21:05.516Z,93
2022-12-27T07:22:05.432Z,93
2022-12-27T07:23:05.520Z,93
2022-12-27T07:24:05.582Z,93
2022-12-27T07:25:05.563Z,93
2022-12-27T07:26:05.509Z,93
2022-12-27T07:27:05.463Z,93
2022-12-27T07:28:05.513Z,93
2022-12-27T07:29:05.513Z,93
2022-12-27T07:30:05.455Z,93
2022-12-27T07:31:05.525Z,93
2022-12-27T07:32:05.572Z,93
2022-12-27T07:33:05.508Z,93
2022-12-27T07:34:05.511Z,93
2022-12-27T07:35:05.540Z,93
2022-12-27T07:36:05.523Z,93
2022-12-27T07:37:05.508Z,93
2022-12-27T07:38:05.464Z,93
2022-12-27T07:39:05.604Z,93
2022-12-27T07:40:05.499Z,93
2022-12-27T07:41:05.520Z,93
2022-12-27T07:42:08.288Z,92
2022-12-27T07:43:05.511Z,92
2022-12-27T07:44:05.477Z,92
2022-12-27T07:45:05.472Z,92
2022-12-27T07:46:05.563Z,92
2022-12-27T07:47:05.468Z,92
2022-12-27T07:48:05.482Z,92
2022-12-27T07:49:05.464Z,92
2022-12-27T07:50:05.490Z,92
2022-12-27T07:51:05.567Z,92
2022-12-27T07:52:05.482Z,92
2022-12-27T07:53:05.467Z,92
2022-12-27T07:54:05.586Z,92
2022-12-27T07:55:05.574Z,92
2022-12-27T07:56:05.545Z,92
2022-12-27T07:57:05.554Z,92
2022-12-27T07:58:05.551Z,92
2022-12-27T07:59:05.530Z,91
2022-12-27T08:00:05.551Z,91
2022-12-27T08:01:05.567Z,91
2022-12-27T08:02:05.734Z,90
2022-12-27T08:03:05.576Z,90
2022-12-27T08:04:05.537Z,90
2022-12-27T08:05:05.550Z,89
2022-12-27T08:06:05.542Z,89
2022-12-27T08:07:05.557Z,89
2022-12-27T08:08:05.577Z,89
2022-12-27T08:09:05.600Z,88
2022-12-27T08:10:05.628Z,88
2022-12-27T08:11:06.034Z,88
2022-12-27T08:12:05.565Z,88
2022-12-27T08:13:05.580Z,88
2022-12-27T08:14:05.629Z,88
2022-12-27T08:15:05.629Z,89
2022-12-27T08:16:05.578Z,89
2022-12-27T08:17:05.647Z,89
2022-12-27T08:18:05.586Z,89
2022-12-27T08:19:08.486Z,89
2022-12-27T08:20:05.614Z,89
2022-12-27T08:21:05.609Z,89
2022-12-27T08:22:05.568Z,88
2022-12-27T08:23:05.602Z,88
2022-12-27T08:24:05.618Z,88
2022-12-27T08:25:05.620Z,89
2022-12-27T08:26:05.607Z,89
2022-12-27T08:27:05.602Z,89
2022-12-27T08:28:05.607Z,89
2022-12-27T08:29:05.735Z,88
2022-12-27T08:30:05.592Z,88
2022-12-27T08:31:05.614Z,88
2022-12-27T08:32:05.655Z,86
2022-12-27T08:33:05.654Z,86
2022-12-27T08:34:05.645Z,86
2022-12-27T08:35:33.352Z,85
2022-12-27T08:36:22.252Z,85
2022-12-27T08:37:05.638Z,85
2022-12-27T08:38:05.643Z,85
2022-12-27T08:39:05.734Z,86
2022-12-27T08:40:05.652Z,86
2022-12-27T08:41:05.666Z,86
2022-12-27T08:42:05.708Z,89
2022-12-27T08:43:05.634Z,89
2022-12-27T08:44:05.662Z,89
2022-12-27T08:45:05.609Z,88
2022-12-27T08:46:05.737Z,88
2022-12-27T08:47:05.706Z,88
2022-12-27T08:48:05.679Z,88
2022-12-27T08:49:05.657Z,88
2022-12-27T08:50:05.690Z,88
2022-12-27T08:51:10.610Z,88
2022-12-27T08:52:05.709Z,87
2022-12-27T08:53:05.671Z,87
2022-12-27T08:54:05.680Z,87
2022-12-27T08:55:05.700Z,87
2022-12-27T08:56:05.672Z,87
2022-12-27T08:57:05.669Z,87
2022-12-27T08:58:09.343Z,87
2022-12-27T08:59:05.668Z,87
2022-12-27T09:00:05.689Z,87
2022-12-27T09:01:05.786Z,87
2022-12-27T09:02:05.822Z,84
2022-12-27T09:03:05.708Z,84
2022-12-27T09:04:05.871Z,84
2022-12-27T09:05:05.695Z,84
2022-12-27T09:06:05.679Z,83
2022-12-27T09:07:05.697Z,83
2022-12-27T09:08:05.687Z,83
2022-12-27T09:09:05.672Z,84
2022-12-27T09:10:05.694Z,84
2022-12-27T09:11:05.740Z,84
2022-12-27T09:12:08.789Z,87
2022-12-27T09:13:05.726Z,87
2022-12-27T09:14:05.687Z,87
2022-12-27T09:15:05.689Z,87
2022-12-27T09:16:05.739Z,86
2022-12-27T09:17:05.680Z,86
2022-12-27T09:18:05.703Z,86
2022-12-27T09:19:05.681Z,84
2022-12-27T09:20:05.686Z,84
2022-12-27T09:21:05.783Z,84
2022-12-27T09:22:05.894Z,83
2022-12-27T09:23:05.731Z,83
2022-12-27T09:24:05.747Z,83
2022-12-27T09:25:05.908Z,83
2022-12-27T09:26:05.777Z,83
2022-12-27T09:27:05.760Z,83
2022-12-27T09:28:05.785Z,83
2022-12-27T09:29:05.844Z,83
2022-12-27T09:30:05.743Z,83
2022-12-27T09:31:06.105Z,83
2022-12-27T09:32:05.834Z,83
2022-12-27T09:33:05.878Z,83
2022-12-27T09:34:05.764Z,83
2022-12-27T09:35:05.778Z,83
2022-12-27T09:36:05.858Z,83
2022-12-27T09:37:05.738Z,83
2022-12-27T09:38:05.739Z,83
2022-12-27T09:39:05.748Z,84
2022-12-27T09:40:05.742Z,84
2022-12-27T09:41:05.755Z,84
2022-12-27T09:43:16.614Z,81
2022-12-27T09:44:05.770Z,81
2022-12-27T09:45:05.752Z,81
2022-12-27T09:46:05.916Z,81
2022-12-27T09:47:05.757Z,81
2022-12-27T09:48:05.765Z,82
2022-12-27T09:49:05.750Z,82
2022-12-27T09:50:05.787Z,82
2022-12-27T09:51:05.822Z,87
2022-12-27T09:52:05.745Z,87
2022-12-27T09:53:05.751Z,87
2022-12-27T09:54:05.790Z,87
2022-12-27T09:55:05.869Z,83
2022-12-27T09:56:05.841Z,83
2022-12-27T09:57:21.060Z,83
2022-12-27T09:58:05.753Z,83
2022-12-27T09:59:05.788Z,82
2022-12-27T10:00:05.786Z,82
2022-12-27T10:01:05.888Z,82
2022-12-27T10:02:05.791Z,82
2022-12-27T10:03:05.767Z,82
2022-12-27T10:04:05.762Z,82
2022-12-27T10:05:22.457Z,82
2022-12-27T10:06:05.945Z,82
2022-12-27T10:07:05.840Z,82
2022-12-27T10:08:05.776Z,82
2022-12-27T10:09:05.832Z,82
2022-12-27T10:10:05.792Z,82
2022-12-27T10:11:05.839Z,82
2022-12-27T10:12:05.764Z,82
2022-12-27T10:13:05.843Z,82
2022-12-27T10:14:05.772Z,82
2022-12-27T10:15:05.821Z,82
2022-12-27T10:16:05.939Z,82
2022-12-27T10:17:05.799Z,82
2022-12-27T10:18:05.924Z,82
2022-12-27T10:19:05.865Z,81
2022-12-27T10:20:05.848Z,81
2022-12-27T10:21:05.850Z,81
2022-12-27T10:22:05.888Z,81
2022-12-27T10:23:06.548Z,81
2022-12-27T10:24:05.836Z,81
2022-12-27T10:25:05.845Z,81
2022-12-27T10:26:05.864Z,81
2022-12-27T10:27:05.843Z,81
2022-12-27T10:28:05.907Z,81
2022-12-27T10:29:05.789Z,81
2022-12-27T10:30:05.850Z,81
2022-12-27T10:31:06.001Z,82
2022-12-27T10:32:05.851Z,82
2022-12-27T10:33:05.879Z,82
2022-12-27T10:34:10.418Z,81
2022-12-27T10:35:05.891Z,81
2022-12-27T10:36:06.006Z,81
2022-12-27T10:37:05.930Z,82
2022-12-27T10:38:05.850Z,82
2022-12-27T10:39:05.849Z,82
2022-12-27T10:40:05.888Z,82
2022-12-27T10:41:05.950Z,81
2022-12-27T10:42:05.880Z,81
2022-12-27T10:43:05.883Z,81
2022-12-27T10:44:05.868Z,82
2022-12-27T10:45:05.981Z,82
2022-12-27T10:46:06.121Z,82
2022-12-27T10:47:05.944Z,82
2022-12-27T10:48:05.862Z,82
2022-12-27T10:49:21.930Z,82
2022-12-27T10:50:06.031Z,82
2022-12-27T10:51:05.919Z,82
2022-12-27T10:52:05.865Z,82
2022-12-27T10:53:05.886Z,82
2022-12-27T10:54:05.894Z,82
2022-12-27T10:55:05.911Z,82
2022-12-27T10:56:05.919Z,82
2022-12-27T10:57:05.867Z,80
2022-12-27T10:58:05.856Z,80
2022-12-27T10:59:05.932Z,80
2022-12-27T11:00:05.881Z,80
2022-12-27T11:01:05.953Z,81
2022-12-27T11:02:05.904Z,81
2022-12-27T11:03:05.949Z,81
2022-12-27T11:04:05.861Z,81
2022-12-27T11:05:05.922Z,81
2022-12-27T11:06:05.970Z,81
2022-12-27T11:07:05.869Z,80
2022-12-27T11:08:06.192Z,80
2022-12-27T11:09:05.932Z,80
2022-12-27T11:10:05.930Z,80
2022-12-27T11:11:05.940Z,80
2022-12-27T11:12:05.953Z,80
2022-12-27T11:13:06.018Z,80
2022-12-27T11:14:05.942Z,80
2022-12-27T11:15:05.937Z,80
2022-12-27T11:16:05.989Z,80
2022-12-27T11:17:05.930Z,80
2022-12-27T11:18:05.930Z,80
2022-12-27T11:19:05.973Z,80
2022-12-27T11:20:05.969Z,80
2022-12-27T11:21:05.929Z,80
2022-12-27T11:22:05.949Z,80
2022-12-27T11:23:05.953Z,80
2022-12-27T11:24:05.930Z,79
2022-12-27T11:25:05.957Z,79
2022-12-27T11:26:05.949Z,79
2022-12-27T11:27:05.950Z,79
2022-12-27T11:28:05.936Z,79
2022-12-27T11:29:06.003Z,79
2022-12-27T11:30:06.002Z,79
2022-12-27T11:31:06.008Z,79
2022-12-27T11:32:05.941Z,79
2022-12-27T11:33:05.948Z,79
2022-12-27T11:34:06.014Z,80
2022-12-27T11:35:06.101Z,80
2022-12-27T11:36:06.033Z,80
2022-12-27T11:37:06.071Z,80
2022-12-27T11:38:05.946Z,80
2022-12-27T11:39:05.934Z,80
2022-12-27T11:40:05.929Z,80
2022-12-27T11:41:05.990Z,80
2022-12-27T11:42:06.042Z,80
2022-12-27T11:43:06.021Z,80
2022-12-27T11:44:06.032Z,79
2022-12-27T11:45:06.046Z,79
2022-12-27T11:46:06.026Z,79
2022-12-27T11:47:06.089Z,79
2022-12-27T11:48:06.047Z,79
2022-12-27T11:49:06.012Z,79
2022-12-27T11:50:06.021Z,79
2022-12-27T11:51:06.060Z,79
2022-12-27T11:52:06.019Z,79
2022-12-27T11:53:06.018Z,79
2022-12-27T11:54:06.058Z,79
2022-12-27T11:55:06.048Z,78
2022-12-27T11:56:06.047Z,78
2022-12-27T11:57:06.028Z,78
2022-12-27T11:58:06.046Z,79
2022-12-27T11:59:06.026Z,79
2022-12-27T12:00:06.135Z,79
2022-12-27T12:01:06.116Z,80
2022-12-27T12:02:06.107Z,80
2022-12-27T12:03:06.068Z,80
2022-12-27T12:04:06.011Z,80
2022-12-27T12:05:06.059Z,78
2022-12-27T12:06:06.051Z,78
2022-12-27T12:07:06.179Z,78
2022-12-27T12:08:06.251Z,79
2022-12-27T12:09:06.073Z,79
2022-12-27T12:10:06.067Z,79
2022-12-27T12:11:06.085Z,80
2022-12-27T12:12:06.170Z,80
2022-12-27T12:13:06.071Z,80
2022-12-27T12:14:06.070Z,80
2022-12-27T12:15:06.074Z,78
2022-12-27T12:16:06.165Z,78
2022-12-27T12:17:06.108Z,78
2022-12-27T12:18:06.078Z,78
2022-12-27T12:19:06.192Z,78
2022-12-27T12:20:06.090Z,78
2022-12-27T12:21:06.131Z,77
2022-12-27T12:22:06.113Z,77
2022-12-27T12:23:06.116Z,77
2022-12-27T12:24:06.072Z,77
2022-12-27T12:25:06.129Z,79
2022-12-27T12:26:06.167Z,79
2022-12-27T12:27:06.119Z,79
2022-12-27T12:28:17.569Z,77
2022-12-27T12:29:06.095Z,77
2022-12-27T12:30:06.171Z,77
2022-12-27T12:31:06.156Z,76
2022-12-27T12:32:06.151Z,76
2022-12-27T12:33:06.183Z,76
2022-12-27T12:34:06.191Z,76
2022-12-27T12:35:06.141Z,76
2022-12-27T12:36:06.189Z,76
2022-12-27T12:37:06.160Z,76
2022-12-27T12:38:06.259Z,78
2022-12-27T12:39:06.185Z,78
2022-12-27T12:40:06.209Z,78
2022-12-27T12:41:06.190Z,78
2022-12-27T12:42:06.220Z,78
2022-12-27T12:43:06.195Z,78
2022-12-27T12:44:06.199Z,78
2022-12-27T12:45:06.145Z,77
2022-12-27T12:46:06.216Z,77
2022-12-27T12:47:06.199Z,77
2022-12-27T12:48:06.271Z,77
2022-12-27T12:49:06.126Z,77
2022-12-27T12:50:11.307Z,77
2022-12-27T12:51:06.203Z,76
2022-12-27T12:52:06.283Z,76
2022-12-27T12:53:06.157Z,76
2022-12-27T12:54:06.170Z,76
2022-12-27T12:55:06.182Z,77
2022-12-27T12:56:06.230Z,77
2022-12-27T12:57:06.253Z,77
2022-12-27T12:58:06.167Z,78
2022-12-27T12:59:06.179Z,78
2022-12-27T13:00:06.313Z,78
2022-12-27T13:01:06.253Z,78
2022-12-27T13:02:06.386Z,78
2022-12-27T13:03:06.284Z,78
2022-12-27T13:04:06.202Z,78
2022-12-27T13:05:06.229Z,76
2022-12-27T13:06:06.206Z,76
2022-12-27T13:07:06.193Z,76
2022-12-27T13:08:06.324Z,75
2022-12-27T13:09:06.181Z,75
2022-12-27T13:10:06.245Z,75
2022-12-27T13:11:06.271Z,75
2022-12-27T13:12:06.360Z,75
2022-12-27T13:13:06.236Z,75
2022-12-27T13:14:06.320Z,75
2022-12-27T13:15:06.252Z,75
2022-12-27T13:16:06.269Z,75
2022-12-27T13:17:06.277Z,75
2022-12-27T13:18:06.283Z,74
2022-12-27T13:19:06.266Z,74
2022-12-27T13:20:06.242Z,74
2022-12-27T13:21:06.263Z,74
2022-12-27T13:22:06.234Z,76
2022-12-27T13:23:06.290Z,76
2022-12-27T13:24:06.428Z,76
2022-12-27T13:25:06.272Z,75
2022-12-27T13:26:06.335Z,75
2022-12-27T13:27:06.305Z,75
2022-12-27T13:28:06.213Z,76
2022-12-27T13:29:06.218Z,76
2022-12-27T13:30:07.319Z,76
2022-12-27T13:31:06.308Z,76
2022-12-27T13:32:06.348Z,75
2022-12-27T13:33:06.229Z,75
2022-12-27T13:34:06.212Z,75
2022-12-27T13:35:06.265Z,75
2022-12-27T13:36:06.340Z,75
2022-12-27T13:37:06.223Z,75
2022-12-27T13:38:06.239Z,76
2022-12-27T13:39:06.254Z,76
2022-12-27T13:40:06.246Z,76
2022-12-27T13:41:06.287Z,76
2022-12-27T13:42:06.402Z,77
2022-12-27T13:43:06.383Z,77
2022-12-27T13:44:06.254Z,77
2022-12-27T13:45:06.245Z,77
2022-12-27T13:46:06.354Z,77
2022-12-27T13:47:06.397Z,77
2022-12-27T13:48:06.411Z,75
2022-12-27T13:49:06.324Z,75
2022-12-27T13:50:06.324Z,75
2022-12-27T13:51:06.312Z,75
2022-12-27T13:52:06.255Z,76
2022-12-27T13:53:06.311Z,76
2022-12-27T13:54:06.411Z,76
2022-12-27T13:55:06.272Z,77
2022-12-27T13:56:27.614Z,77
2022-12-27T13:57:06.338Z,77
2022-12-27T13:58:06.301Z,77
2022-12-27T13:59:06.356Z,77
2022-12-27T14:00:06.340Z,77
2022-12-27T14:01:06.408Z,77
2022-12-27T14:02:06.375Z,77
2022-12-27T14:03:06.430Z,77
2022-12-27T14:04:06.316Z,77
2022-12-27T14:05:06.330Z,77
2022-12-27T14:06:06.350Z,77
2022-12-27T14:07:06.265Z,77
2022-12-27T14:08:06.404Z,77
2022-12-27T14:09:06.451Z,77
2022-12-27T14:10:06.592Z,77
2022-12-27T14:11:06.307Z,77
2022-12-27T14:12:06.366Z,78
2022-12-27T14:13:06.362Z,78
2022-12-27T14:14:06.285Z,78
2022-12-27T14:15:06.315Z,78
2022-12-27T14:16:06.470Z,78